sensor_id;sensor_type;location;lat;lon;timestamp;temperature;humidity
7576;DHT22;3829;50.798;4.358;2023-07-30T00:00:40;16.20;99.90
7576;DHT22;3829;50.798;4.358;2023-07-30T00:03:06;16.30;99.90
7576;DHT22;3829;50.798;4.358;2023-07-30T00:05:32;16.20;99.90
7576;DHT22;3829;50.798;4.358;2023-07-30T00:07:57;16.10;99.90
7576;DHT22;3829;50.798;4.358;2023-07-30T00:10:23;16.10;99.90
7576;DHT22;3829;50.798;4.358;2023-07-30T00:12:48;16.10;99.90
7576;DHT22;3829;50.798;4.358;2023-07-30T00:15:14;16.20;99.90
7576;DHT22;3829;50.798;4.358;2023-07-30T00:17:40;16.10;99.90
7576;DHT22;3829;50.798;4.358;2023-07-30T00:20:07;16.30;99.90
7576;DHT22;3829;50.798;4.358;2023-07-30T00:22:33;16.30;99.90
7576;DHT22;3829;50.798;4.358;2023-07-30T00:24:59;16.30;99.90
7576;DHT22;3829;50.798;4.358;2023-07-30T00:27:24;16.40;99.90
7576;DHT22;3829;50.798;4.358;2023-07-30T00:29:50;16.40;99.90
7576;DHT22;3829;50.798;4.358;2023-07-30T00:32:16;16.50;99.90
7576;DHT22;3829;50.798;4.358;2023-07-30T00:34:43;16.60;99.90
7576;DHT22;3829;50.798;4.358;2023-07-30T00:37:08;16.70;99.90
7576;DHT22;3829;50.798;4.358;2023-07-30T00:39:34;16.70;99.90
7576;DHT22;3829;50.798;4.358;2023-07-30T00:42:00;16.80;99.90
7576;DHT22;3829;50.798;4.358;2023-07-30T00:44:26;16.80;99.90
7576;DHT22;3829;50.798;4.358;2023-07-30T00:46:52;16.80;99.90
7576;DHT22;3829;50.798;4.358;2023-07-30T00:49:17;16.90;99.90
7576;DHT22;3829;50.798;4.358;2023-07-30T00:51:43;16.90;99.90
7576;DHT22;3829;50.798;4.358;2023-07-30T00:54:10;17.00;99.90
7576;DHT22;3829;50.798;4.358;2023-07-30T00:56:36;17.00;99.90
7576;DHT22;3829;50.798;4.358;2023-07-30T00:59:02;17.00;99.90
7576;DHT22;3829;50.798;4.358;2023-07-30T01:01:29;17.10;99.90
7576;DHT22;3829;50.798;4.358;2023-07-30T01:03:58;17.10;99.90
7576;DHT22;3829;50.798;4.358;2023-07-30T01:06:24;17.10;99.90
7576;DHT22;3829;50.798;4.358;2023-07-30T01:08:49;17.10;99.90
7576;DHT22;3829;50.798;4.358;2023-07-30T01:11:15;17.20;99.90
7576;DHT22;3829;50.798;4.358;2023-07-30T01:13:42;17.20;99.90
7576;DHT22;3829;50.798;4.358;2023-07-30T01:16:08;17.10;99.90
7576;DHT22;3829;50.798;4.358;2023-07-30T01:18:34;17.10;99.90
7576;DHT22;3829;50.798;4.358;2023-07-30T01:21:00;17.20;99.90
7576;DHT22;3829;50.798;4.358;2023-07-30T01:23:26;17.20;99.90
7576;DHT22;3829;50.798;4.358;2023-07-30T01:26:08;17.20;99.90
7576;DHT22;3829;50.798;4.358;2023-07-30T01:28:37;17.30;99.90
7576;DHT22;3829;50.798;4.358;2023-07-30T01:31:05;17.30;99.90
7576;DHT22;3829;50.798;4.358;2023-07-30T01:33:32;17.30;99.90
7576;DHT22;3829;50.798;4.358;2023-07-30T01:35:58;17.30;99.90
7576;DHT22;3829;50.798;4.358;2023-07-30T01:38:25;17.40;99.90
7576;DHT22;3829;50.798;4.358;2023-07-30T01:40:51;17.40;99.90
7576;DHT22;3829;50.798;4.358;2023-07-30T01:43:17;17.30;99.90
7576;DHT22;3829;50.798;4.358;2023-07-30T01:45:43;17.30;99.90
7576;DHT22;3829;50.798;4.358;2023-07-30T01:48:08;17.30;99.90
7576;DHT22;3829;50.798;4.358;2023-07-30T01:50:34;17.40;99.90
7576;DHT22;3829;50.798;4.358;2023-07-30T01:53:00;17.40;99.90
7576;DHT22;3829;50.798;4.358;2023-07-30T01:55:25;17.40;99.90
7576;DHT22;3829;50.798;4.358;2023-07-30T01:57:51;17.40;99.90
7576;DHT22;3829;50.798;4.358;2023-07-30T02:00:16;17.40;99.90
7576;DHT22;3829;50.798;4.358;2023-07-30T02:02:42;17.30;99.90
7576;DHT22;3829;50.798;4.358;2023-07-30T02:05:07;17.30;99.90
7576;DHT22;3829;50.798;4.358;2023-07-30T02:07:33;17.30;99.90
7576;DHT22;3829;50.798;4.358;2023-07-30T02:09:58;17.30;99.90
7576;DHT22;3829;50.798;4.358;2023-07-30T02:12:24;17.40;99.90
7576;DHT22;3829;50.798;4.358;2023-07-30T02:14:49;17.40;99.90
7576;DHT22;3829;50.798;4.358;2023-07-30T02:17:15;17.20;99.90
7576;DHT22;3829;50.798;4.358;2023-07-30T02:19:42;17.20;99.90
7576;DHT22;3829;50.798;4.358;2023-07-30T02:22:07;17.30;99.90
7576;DHT22;3829;50.798;4.358;2023-07-30T02:24:33;17.20;99.90
7576;DHT22;3829;50.798;4.358;2023-07-30T02:26:58;17.10;99.90
7576;DHT22;3829;50.798;4.358;2023-07-30T02:29:24;17.00;99.90
7576;DHT22;3829;50.798;4.358;2023-07-30T02:31:50;17.00;99.90
7576;DHT22;3829;50.798;4.358;2023-07-30T02:34:16;17.00;99.90
7576;DHT22;3829;50.798;4.358;2023-07-30T02:36:41;16.90;99.90
7576;DHT22;3829;50.798;4.358;2023-07-30T02:39:07;16.90;99.90
7576;DHT22;3829;50.798;4.358;2023-07-30T02:41:33;16.90;99.90
7576;DHT22;3829;50.798;4.358;2023-07-30T02:43:58;16.90;99.90
7576;DHT22;3829;50.798;4.358;2023-07-30T02:46:24;16.80;99.90
7576;DHT22;3829;50.798;4.358;2023-07-30T02:48:50;16.80;99.90
7576;DHT22;3829;50.798;4.358;2023-07-30T02:51:15;16.80;99.90
7576;DHT22;3829;50.798;4.358;2023-07-30T02:53:43;16.80;99.90
7576;DHT22;3829;50.798;4.358;2023-07-30T02:56:08;16.70;99.90
7576;DHT22;3829;50.798;4.358;2023-07-30T02:58:34;16.70;99.90
7576;DHT22;3829;50.798;4.358;2023-07-30T03:01:07;16.70;99.90
7576;DHT22;3829;50.798;4.358;2023-07-30T03:03:33;16.60;99.90
7576;DHT22;3829;50.798;4.358;2023-07-30T03:05:59;16.60;99.90
7576;DHT22;3829;50.798;4.358;2023-07-30T03:08:24;16.60;99.90
7576;DHT22;3829;50.798;4.358;2023-07-30T03:10:50;16.60;99.90
7576;DHT22;3829;50.798;4.358;2023-07-30T03:13:16;16.60;99.90
7576;DHT22;3829;50.798;4.358;2023-07-30T03:15:41;16.60;99.90
7576;DHT22;3829;50.798;4.358;2023-07-30T03:18:07;16.50;99.90
7576;DHT22;3829;50.798;4.358;2023-07-30T03:20:33;16.50;99.90
7576;DHT22;3829;50.798;4.358;2023-07-30T03:22:58;16.60;99.90
7576;DHT22;3829;50.798;4.358;2023-07-30T03:25:24;16.60;99.90
7576;DHT22;3829;50.798;4.358;2023-07-30T03:27:49;16.50;99.90
7576;DHT22;3829;50.798;4.358;2023-07-30T03:30:15;16.50;99.90
7576;DHT22;3829;50.798;4.358;2023-07-30T03:32:40;16.40;99.90
7576;DHT22;3829;50.798;4.358;2023-07-30T03:35:06;16.50;99.90
7576;DHT22;3829;50.798;4.358;2023-07-30T03:37:32;16.60;99.90
7576;DHT22;3829;50.798;4.358;2023-07-30T03:39:57;16.60;99.90
7576;DHT22;3829;50.798;4.358;2023-07-30T03:42:23;16.60;99.90
7576;DHT22;3829;50.798;4.358;2023-07-30T03:44:49;16.60;99.90
7576;DHT22;3829;50.798;4.358;2023-07-30T03:47:14;16.60;99.90
7576;DHT22;3829;50.798;4.358;2023-07-30T03:49:40;16.60;99.90
7576;DHT22;3829;50.798;4.358;2023-07-30T03:52:05;16.70;99.90
7576;DHT22;3829;50.798;4.358;2023-07-30T03:54:31;16.60;99.90
7576;DHT22;3829;50.798;4.358;2023-07-30T03:56:57;16.70;99.90
7576;DHT22;3829;50.798;4.358;2023-07-30T03:59:22;16.70;99.90
7576;DHT22;3829;50.798;4.358;2023-07-30T04:01:48;16.70;99.90
7576;DHT22;3829;50.798;4.358;2023-07-30T04:04:14;16.60;99.90
7576;DHT22;3829;50.798;4.358;2023-07-30T04:06:39;16.70;99.90
7576;DHT22;3829;50.798;4.358;2023-07-30T04:09:05;16.60;99.90
7576;DHT22;3829;50.798;4.358;2023-07-30T04:11:30;16.50;99.90
7576;DHT22;3829;50.798;4.358;2023-07-30T04:13:56;16.50;99.90
7576;DHT22;3829;50.798;4.358;2023-07-30T04:16:21;16.40;99.90
7576;DHT22;3829;50.798;4.358;2023-07-30T04:18:47;16.20;99.90
7576;DHT22;3829;50.798;4.358;2023-07-30T04:21:13;16.20;99.90
7576;DHT22;3829;50.798;4.358;2023-07-30T04:23:39;16.20;99.90
7576;DHT22;3829;50.798;4.358;2023-07-30T04:26:04;16.20;99.90
7576;DHT22;3829;50.798;4.358;2023-07-30T04:28:30;16.20;99.90
7576;DHT22;3829;50.798;4.358;2023-07-30T04:30:55;16.10;99.90
7576;DHT22;3829;50.798;4.358;2023-07-30T04:33:21;16.10;99.90
7576;DHT22;3829;50.798;4.358;2023-07-30T04:35:46;16.10;99.90
7576;DHT22;3829;50.798;4.358;2023-07-30T04:38:12;16.10;99.90
7576;DHT22;3829;50.798;4.358;2023-07-30T04:40:39;16.00;99.90
7576;DHT22;3829;50.798;4.358;2023-07-30T04:43:04;16.00;99.90
7576;DHT22;3829;50.798;4.358;2023-07-30T04:45:30;16.00;99.90
7576;DHT22;3829;50.798;4.358;2023-07-30T04:47:56;16.10;99.90
7576;DHT22;3829;50.798;4.358;2023-07-30T04:50:22;16.10;99.90
7576;DHT22;3829;50.798;4.358;2023-07-30T04:52:48;16.10;99.90
7576;DHT22;3829;50.798;4.358;2023-07-30T04:55:13;16.10;99.90
7576;DHT22;3829;50.798;4.358;2023-07-30T04:57:39;16.00;99.90
7576;DHT22;3829;50.798;4.358;2023-07-30T05:00:05;16.10;99.90
7576;DHT22;3829;50.798;4.358;2023-07-30T05:02:31;16.00;99.90
7576;DHT22;3829;50.798;4.358;2023-07-30T05:04:57;16.10;99.90
7576;DHT22;3829;50.798;4.358;2023-07-30T05:07:22;16.10;99.90
7576;DHT22;3829;50.798;4.358;2023-07-30T05:09:48;16.10;99.90
7576;DHT22;3829;50.798;4.358;2023-07-30T05:12:13;16.30;99.90
7576;DHT22;3829;50.798;4.358;2023-07-30T05:14:39;16.30;99.90
7576;DHT22;3829;50.798;4.358;2023-07-30T05:17:04;16.40;99.90
7576;DHT22;3829;50.798;4.358;2023-07-30T05:19:30;16.40;99.90
7576;DHT22;3829;50.798;4.358;2023-07-30T05:21:57;16.50;99.90
7576;DHT22;3829;50.798;4.358;2023-07-30T05:24:24;16.60;99.90
7576;DHT22;3829;50.798;4.358;2023-07-30T05:26:50;16.60;99.90
7576;DHT22;3829;50.798;4.358;2023-07-30T05:29:16;16.70;99.90
7576;DHT22;3829;50.798;4.358;2023-07-30T05:31:41;16.70;99.90
7576;DHT22;3829;50.798;4.358;2023-07-30T05:34:07;16.70;99.90
7576;DHT22;3829;50.798;4.358;2023-07-30T05:36:32;16.60;99.90
7576;DHT22;3829;50.798;4.358;2023-07-30T05:38:58;16.60;99.90
7576;DHT22;3829;50.798;4.358;2023-07-30T05:41:23;16.70;99.90
7576;DHT22;3829;50.798;4.358;2023-07-30T05:43:49;16.60;99.90
7576;DHT22;3829;50.798;4.358;2023-07-30T05:46:15;16.70;99.90
7576;DHT22;3829;50.798;4.358;2023-07-30T05:48:40;16.80;99.90
7576;DHT22;3829;50.798;4.358;2023-07-30T05:51:06;16.80;99.90
7576;DHT22;3829;50.798;4.358;2023-07-30T05:53:31;16.90;99.90
7576;DHT22;3829;50.798;4.358;2023-07-30T05:55:57;17.00;99.90
7576;DHT22;3829;50.798;4.358;2023-07-30T05:58:22;17.00;99.90
7576;DHT22;3829;50.798;4.358;2023-07-30T06:00:48;17.00;99.90
7576;DHT22;3829;50.798;4.358;2023-07-30T06:03:14;17.00;99.90
7576;DHT22;3829;50.798;4.358;2023-07-30T06:05:41;17.10;99.90
7576;DHT22;3829;50.798;4.358;2023-07-30T06:08:07;17.00;99.90
7576;DHT22;3829;50.798;4.358;2023-07-30T06:10:35;16.90;99.90
7576;DHT22;3829;50.798;4.358;2023-07-30T06:13:02;17.00;99.90
7576;DHT22;3829;50.798;4.358;2023-07-30T06:15:28;17.00;99.90
7576;DHT22;3829;50.798;4.358;2023-07-30T06:17:53;16.90;99.90
7576;DHT22;3829;50.798;4.358;2023-07-30T06:20:19;17.00;99.90
7576;DHT22;3829;50.798;4.358;2023-07-30T06:22:44;17.00;99.90
7576;DHT22;3829;50.798;4.358;2023-07-30T06:25:10;17.00;99.90
7576;DHT22;3829;50.798;4.358;2023-07-30T06:27:36;16.90;99.90
7576;DHT22;3829;50.798;4.358;2023-07-30T06:30:01;16.90;99.90
7576;DHT22;3829;50.798;4.358;2023-07-30T06:32:27;16.90;99.90
7576;DHT22;3829;50.798;4.358;2023-07-30T06:34:53;16.90;99.90
7576;DHT22;3829;50.798;4.358;2023-07-30T06:37:18;16.90;99.90
7576;DHT22;3829;50.798;4.358;2023-07-30T06:39:44;16.90;99.90
7576;DHT22;3829;50.798;4.358;2023-07-30T06:42:09;17.10;99.90
7576;DHT22;3829;50.798;4.358;2023-07-30T06:44:35;17.20;99.90
7576;DHT22;3829;50.798;4.358;2023-07-30T06:47:01;17.10;99.90
7576;DHT22;3829;50.798;4.358;2023-07-30T06:49:26;16.90;99.90
7576;DHT22;3829;50.798;4.358;2023-07-30T06:51:52;16.90;99.90
7576;DHT22;3829;50.798;4.358;2023-07-30T06:54:18;16.80;99.90
7576;DHT22;3829;50.798;4.358;2023-07-30T06:56:43;16.80;99.90
7576;DHT22;3829;50.798;4.358;2023-07-30T06:59:09;16.90;99.90
7576;DHT22;3829;50.798;4.358;2023-07-30T07:01:34;17.00;99.90
7576;DHT22;3829;50.798;4.358;2023-07-30T07:04:00;17.20;99.90
7576;DHT22;3829;50.798;4.358;2023-07-30T07:06:25;17.30;99.90
7576;DHT22;3829;50.798;4.358;2023-07-30T07:08:51;17.70;99.90
7576;DHT22;3829;50.798;4.358;2023-07-30T07:11:16;17.80;99.90
7576;DHT22;3829;50.798;4.358;2023-07-30T07:13:42;17.70;99.90
7576;DHT22;3829;50.798;4.358;2023-07-30T07:16:07;17.70;99.90
7576;DHT22;3829;50.798;4.358;2023-07-30T07:18:33;17.80;99.90
7576;DHT22;3829;50.798;4.358;2023-07-30T07:20:59;17.90;99.90
7576;DHT22;3829;50.798;4.358;2023-07-30T07:23:24;18.30;99.90
7576;DHT22;3829;50.798;4.358;2023-07-30T07:25:51;18.50;99.90
7576;DHT22;3829;50.798;4.358;2023-07-30T07:28:17;18.50;99.90
7576;DHT22;3829;50.798;4.358;2023-07-30T07:30:45;18.70;99.90
7576;DHT22;3829;50.798;4.358;2023-07-30T07:33:11;19.10;99.90
7576;DHT22;3829;50.798;4.358;2023-07-30T07:35:39;19.10;99.90
7576;DHT22;3829;50.798;4.358;2023-07-30T07:38:05;19.10;99.90
7576;DHT22;3829;50.798;4.358;2023-07-30T07:40:35;19.00;99.90
7576;DHT22;3829;50.798;4.358;2023-07-30T07:43:01;19.10;99.90
7576;DHT22;3829;50.798;4.358;2023-07-30T07:45:26;19.20;99.90
7576;DHT22;3829;50.798;4.358;2023-07-30T07:47:52;19.10;99.90
7576;DHT22;3829;50.798;4.358;2023-07-30T07:50:17;19.20;99.90
7576;DHT22;3829;50.798;4.358;2023-07-30T07:52:43;19.40;99.90
7576;DHT22;3829;50.798;4.358;2023-07-30T07:55:09;19.40;99.90
7576;DHT22;3829;50.798;4.358;2023-07-30T07:57:34;19.60;99.90
7576;DHT22;3829;50.798;4.358;2023-07-30T08:00:00;19.70;99.90
7576;DHT22;3829;50.798;4.358;2023-07-30T08:02:26;19.90;99.90
7576;DHT22;3829;50.798;4.358;2023-07-30T08:04:52;20.10;99.90
7576;DHT22;3829;50.798;4.358;2023-07-30T08:07:18;19.80;99.90
7576;DHT22;3829;50.798;4.358;2023-07-30T08:09:43;20.10;99.90
7576;DHT22;3829;50.798;4.358;2023-07-30T08:12:09;20.40;99.90
7576;DHT22;3829;50.798;4.358;2023-07-30T08:14:34;20.10;99.90
7576;DHT22;3829;50.798;4.358;2023-07-30T08:17:00;20.00;99.90
7576;DHT22;3829;50.798;4.358;2023-07-30T08:19:25;19.90;99.90
7576;DHT22;3829;50.798;4.358;2023-07-30T08:21:51;20.10;99.90
7576;DHT22;3829;50.798;4.358;2023-07-30T08:24:17;20.00;99.90
7576;DHT22;3829;50.798;4.358;2023-07-30T08:26:42;20.00;99.90
7576;DHT22;3829;50.798;4.358;2023-07-30T08:29:08;20.00;99.90
7576;DHT22;3829;50.798;4.358;2023-07-30T08:31:35;19.80;99.90
7576;DHT22;3829;50.798;4.358;2023-07-30T08:34:01;20.00;99.90
7576;DHT22;3829;50.798;4.358;2023-07-30T08:36:26;20.10;99.90
7576;DHT22;3829;50.798;4.358;2023-07-30T08:38:52;20.50;99.90
7576;DHT22;3829;50.798;4.358;2023-07-30T08:41:18;20.60;99.90
7576;DHT22;3829;50.798;4.358;2023-07-30T08:43:44;20.60;99.90
7576;DHT22;3829;50.798;4.358;2023-07-30T08:46:15;20.60;99.90
7576;DHT22;3829;50.798;4.358;2023-07-30T08:48:41;20.60;99.90
7576;DHT22;3829;50.798;4.358;2023-07-30T08:51:07;20.20;99.90
7576;DHT22;3829;50.798;4.358;2023-07-30T08:53:32;20.00;99.90
7576;DHT22;3829;50.798;4.358;2023-07-30T08:55:59;20.20;99.90
7576;DHT22;3829;50.798;4.358;2023-07-30T08:58:26;19.90;99.90
7576;DHT22;3829;50.798;4.358;2023-07-30T09:00:55;20.00;99.90
7576;DHT22;3829;50.798;4.358;2023-07-30T09:03:23;20.20;99.90
7576;DHT22;3829;50.798;4.358;2023-07-30T09:05:50;20.10;99.90
7576;DHT22;3829;50.798;4.358;2023-07-30T09:08:16;19.40;99.90
7576;DHT22;3829;50.798;4.358;2023-07-30T09:10:42;18.90;99.90
7576;DHT22;3829;50.798;4.358;2023-07-30T09:13:08;18.40;99.90
7576;DHT22;3829;50.798;4.358;2023-07-30T09:15:36;18.00;99.90
7576;DHT22;3829;50.798;4.358;2023-07-30T09:18:03;17.80;99.90
7576;DHT22;3829;50.798;4.358;2023-07-30T09:20:37;17.80;99.90
7576;DHT22;3829;50.798;4.358;2023-07-30T09:23:04;17.90;99.90
7576;DHT22;3829;50.798;4.358;2023-07-30T09:25:30;17.80;99.90
7576;DHT22;3829;50.798;4.358;2023-07-30T09:27:55;17.80;99.90
7576;DHT22;3829;50.798;4.358;2023-07-30T09:30:24;18.10;99.90
7576;DHT22;3829;50.798;4.358;2023-07-30T09:32:53;18.30;99.90
7576;DHT22;3829;50.798;4.358;2023-07-30T09:35:19;18.60;99.90
7576;DHT22;3829;50.798;4.358;2023-07-30T09:37:45;19.00;99.90
7576;DHT22;3829;50.798;4.358;2023-07-30T09:40:12;19.60;99.90
7576;DHT22;3829;50.798;4.358;2023-07-30T09:42:42;19.80;99.90
7576;DHT22;3829;50.798;4.358;2023-07-30T09:45:16;19.40;99.90
7576;DHT22;3829;50.798;4.358;2023-07-30T09:47:46;19.30;99.90
7576;DHT22;3829;50.798;4.358;2023-07-30T09:50:12;19.20;99.90
7576;DHT22;3829;50.798;4.358;2023-07-30T09:52:38;19.00;99.90
7576;DHT22;3829;50.798;4.358;2023-07-30T09:55:06;19.00;99.90
7576;DHT22;3829;50.798;4.358;2023-07-30T09:57:32;19.10;99.90
7576;DHT22;3829;50.798;4.358;2023-07-30T09:59:58;19.20;99.90
7576;DHT22;3829;50.798;4.358;2023-07-30T10:02:24;19.40;99.90
7576;DHT22;3829;50.798;4.358;2023-07-30T10:04:53;19.70;99.90
7576;DHT22;3829;50.798;4.358;2023-07-30T10:07:23;19.60;99.90
7576;DHT22;3829;50.798;4.358;2023-07-30T10:09:51;19.20;99.90
7576;DHT22;3829;50.798;4.358;2023-07-30T10:12:24;19.10;99.90
7576;DHT22;3829;50.798;4.358;2023-07-30T10:14:51;19.10;99.90
7576;DHT22;3829;50.798;4.358;2023-07-30T10:17:17;19.40;99.90
7576;DHT22;3829;50.798;4.358;2023-07-30T10:19:47;19.70;99.90
7576;DHT22;3829;50.798;4.358;2023-07-30T10:22:31;20.10;99.90
7576;DHT22;3829;50.798;4.358;2023-07-30T10:24:58;20.10;99.90
7576;DHT22;3829;50.798;4.358;2023-07-30T10:27:26;20.20;99.90
7576;DHT22;3829;50.798;4.358;2023-07-30T10:30:09;20.20;99.90
7576;DHT22;3829;50.798;4.358;2023-07-30T10:32:57;20.30;99.90
7576;DHT22;3829;50.798;4.358;2023-07-30T10:35:34;20.80;99.90
7576;DHT22;3829;50.798;4.358;2023-07-30T10:38:11;21.50;99.90
7576;DHT22;3829;50.798;4.358;2023-07-30T10:40:39;21.50;99.90
7576;DHT22;3829;50.798;4.358;2023-07-30T10:43:14;21.40;99.90
7576;DHT22;3829;50.798;4.358;2023-07-30T10:45:50;20.80;99.90
7576;DHT22;3829;50.798;4.358;2023-07-30T10:48:17;20.40;99.90
7576;DHT22;3829;50.798;4.358;2023-07-30T10:50:43;20.10;99.90
7576;DHT22;3829;50.798;4.358;2023-07-30T10:53:14;19.90;99.90
7576;DHT22;3829;50.798;4.358;2023-07-30T10:55:41;20.10;99.90
7576;DHT22;3829;50.798;4.358;2023-07-30T10:58:07;20.30;99.90
7576;DHT22;3829;50.798;4.358;2023-07-30T11:00:33;20.70;99.90
7576;DHT22;3829;50.798;4.358;2023-07-30T11:02:58;21.30;99.90
7576;DHT22;3829;50.798;4.358;2023-07-30T11:05:24;21.50;99.90
7576;DHT22;3829;50.798;4.358;2023-07-30T11:07:51;21.70;99.90
7576;DHT22;3829;50.798;4.358;2023-07-30T11:10:17;21.20;99.90
7576;DHT22;3829;50.798;4.358;2023-07-30T11:12:43;21.10;99.90
7576;DHT22;3829;50.798;4.358;2023-07-30T11:15:09;21.30;99.90
7576;DHT22;3829;50.798;4.358;2023-07-30T11:17:35;21.50;99.90
7576;DHT22;3829;50.798;4.358;2023-07-30T11:20:01;21.30;99.90
7576;DHT22;3829;50.798;4.358;2023-07-30T11:22:35;21.40;99.90
7576;DHT22;3829;50.798;4.358;2023-07-30T11:25:01;21.20;99.90
7576;DHT22;3829;50.798;4.358;2023-07-30T11:27:45;21.20;99.90
7576;DHT22;3829;50.798;4.358;2023-07-30T11:30:10;21.50;99.90
7576;DHT22;3829;50.798;4.358;2023-07-30T11:32:36;21.90;99.90
7576;DHT22;3829;50.798;4.358;2023-07-30T11:35:02;22.00;99.90
7576;DHT22;3829;50.798;4.358;2023-07-30T11:37:27;21.80;99.90
7576;DHT22;3829;50.798;4.358;2023-07-30T11:39:53;21.70;99.90
7576;DHT22;3829;50.798;4.358;2023-07-30T11:42:19;21.70;99.90
7576;DHT22;3829;50.798;4.358;2023-07-30T11:44:45;21.80;99.90
7576;DHT22;3829;50.798;4.358;2023-07-30T11:47:11;22.00;99.90
7576;DHT22;3829;50.798;4.358;2023-07-30T11:49:37;22.10;99.90
7576;DHT22;3829;50.798;4.358;2023-07-30T11:52:07;22.30;99.90
7576;DHT22;3829;50.798;4.358;2023-07-30T11:54:33;22.50;99.90
7576;DHT22;3829;50.798;4.358;2023-07-30T11:56:59;22.80;99.90
7576;DHT22;3829;50.798;4.358;2023-07-30T11:59:24;23.20;99.90
7576;DHT22;3829;50.798;4.358;2023-07-30T12:01:50;23.10;99.90
7576;DHT22;3829;50.798;4.358;2023-07-30T12:04:16;23.10;99.90
7576;DHT22;3829;50.798;4.358;2023-07-30T12:06:44;23.00;99.90
7576;DHT22;3829;50.798;4.358;2023-07-30T12:09:13;23.00;99.90
7576;DHT22;3829;50.798;4.358;2023-07-30T12:11:51;23.10;99.90
7576;DHT22;3829;50.798;4.358;2023-07-30T12:14:18;22.90;99.90
7576;DHT22;3829;50.798;4.358;2023-07-30T12:16:45;22.50;99.90
7576;DHT22;3829;50.798;4.358;2023-07-30T12:19:10;22.50;99.90
7576;DHT22;3829;50.798;4.358;2023-07-30T12:21:36;22.70;99.90
7576;DHT22;3829;50.798;4.358;2023-07-30T12:24:02;23.10;99.90
7576;DHT22;3829;50.798;4.358;2023-07-30T12:26:29;23.20;99.90
7576;DHT22;3829;50.798;4.358;2023-07-30T12:28:54;23.10;99.90
7576;DHT22;3829;50.798;4.358;2023-07-30T12:31:20;23.00;99.90
7576;DHT22;3829;50.798;4.358;2023-07-30T12:33:45;23.10;99.90
7576;DHT22;3829;50.798;4.358;2023-07-30T12:36:11;23.40;99.90
7576;DHT22;3829;50.798;4.358;2023-07-30T12:38:36;23.30;99.90
7576;DHT22;3829;50.798;4.358;2023-07-30T12:41:02;23.50;99.90
7576;DHT22;3829;50.798;4.358;2023-07-30T12:43:28;23.70;99.90
7576;DHT22;3829;50.798;4.358;2023-07-30T12:45:53;24.20;99.90
7576;DHT22;3829;50.798;4.358;2023-07-30T12:48:19;24.50;99.90
7576;DHT22;3829;50.798;4.358;2023-07-30T12:50:45;24.30;99.90
7576;DHT22;3829;50.798;4.358;2023-07-30T12:53:10;24.30;99.90
7576;DHT22;3829;50.798;4.358;2023-07-30T12:55:36;23.70;99.90
7576;DHT22;3829;50.798;4.358;2023-07-30T12:58:03;23.20;99.90
7576;DHT22;3829;50.798;4.358;2023-07-30T13:00:29;23.20;99.90
7576;DHT22;3829;50.798;4.358;2023-07-30T13:02:54;23.10;99.90
7576;DHT22;3829;50.798;4.358;2023-07-30T13:05:22;23.30;99.90
7576;DHT22;3829;50.798;4.358;2023-07-30T13:07:48;23.30;99.90
7576;DHT22;3829;50.798;4.358;2023-07-30T13:10:14;23.50;99.90
7576;DHT22;3829;50.798;4.358;2023-07-30T13:12:40;23.80;99.90
7576;DHT22;3829;50.798;4.358;2023-07-30T13:15:06;23.90;99.90
7576;DHT22;3829;50.798;4.358;2023-07-30T13:17:32;23.90;99.90
7576;DHT22;3829;50.798;4.358;2023-07-30T13:19:58;23.90;99.90
7576;DHT22;3829;50.798;4.358;2023-07-30T13:22:24;23.80;99.90
7576;DHT22;3829;50.798;4.358;2023-07-30T13:24:49;23.90;99.90
7576;DHT22;3829;50.798;4.358;2023-07-30T13:27:16;24.40;99.90
7576;DHT22;3829;50.798;4.358;2023-07-30T13:29:41;24.40;99.90
7576;DHT22;3829;50.798;4.358;2023-07-30T13:32:07;24.60;99.90
7576;DHT22;3829;50.798;4.358;2023-07-30T13:34:32;25.60;99.90
7576;DHT22;3829;50.798;4.358;2023-07-30T13:36:58;25.30;99.90
7576;DHT22;3829;50.798;4.358;2023-07-30T13:39:24;25.40;99.90
7576;DHT22;3829;50.798;4.358;2023-07-30T13:41:49;25.20;99.90
7576;DHT22;3829;50.798;4.358;2023-07-30T13:44:15;25.50;99.90
7576;DHT22;3829;50.798;4.358;2023-07-30T13:46:40;25.60;99.90
7576;DHT22;3829;50.798;4.358;2023-07-30T13:49:06;25.30;99.90
7576;DHT22;3829;50.798;4.358;2023-07-30T13:51:32;25.40;99.90
7576;DHT22;3829;50.798;4.358;2023-07-30T13:54:00;25.40;99.90
7576;DHT22;3829;50.798;4.358;2023-07-30T13:56:28;25.10;99.90
7576;DHT22;3829;50.798;4.358;2023-07-30T13:58:54;24.70;99.90
7576;DHT22;3829;50.798;4.358;2023-07-30T14:01:19;24.30;99.90
7576;DHT22;3829;50.798;4.358;2023-07-30T14:03:45;24.10;99.90
7576;DHT22;3829;50.798;4.358;2023-07-30T14:06:11;24.50;99.90
7576;DHT22;3829;50.798;4.358;2023-07-30T14:08:37;24.60;99.90
7576;DHT22;3829;50.798;4.358;2023-07-30T14:11:03;24.90;99.90
7576;DHT22;3829;50.798;4.358;2023-07-30T14:13:28;24.80;99.90
7576;DHT22;3829;50.798;4.358;2023-07-30T14:15:54;24.50;99.90
7576;DHT22;3829;50.798;4.358;2023-07-30T14:18:20;24.10;99.90
7576;DHT22;3829;50.798;4.358;2023-07-30T14:20:45;23.70;99.90
7576;DHT22;3829;50.798;4.358;2023-07-30T14:23:11;23.30;99.90
7576;DHT22;3829;50.798;4.358;2023-07-30T14:25:37;23.30;99.90
7576;DHT22;3829;50.798;4.358;2023-07-30T14:28:04;22.90;99.90
7576;DHT22;3829;50.798;4.358;2023-07-30T14:30:30;23.10;99.90
7576;DHT22;3829;50.798;4.358;2023-07-30T14:32:56;24.20;99.90
7576;DHT22;3829;50.798;4.358;2023-07-30T14:35:21;24.60;99.90
7576;DHT22;3829;50.798;4.358;2023-07-30T14:37:47;24.30;99.90
7576;DHT22;3829;50.798;4.358;2023-07-30T14:40:12;24.10;99.90
7576;DHT22;3829;50.798;4.358;2023-07-30T14:42:38;23.90;99.90
7576;DHT22;3829;50.798;4.358;2023-07-30T14:45:05;23.60;99.90
7576;DHT22;3829;50.798;4.358;2023-07-30T14:47:31;23.80;99.90
7576;DHT22;3829;50.798;4.358;2023-07-30T14:49:58;23.50;99.90
7576;DHT22;3829;50.798;4.358;2023-07-30T14:52:23;23.10;99.90
7576;DHT22;3829;50.798;4.358;2023-07-30T14:54:49;23.00;99.90
7576;DHT22;3829;50.798;4.358;2023-07-30T14:57:14;22.60;99.90
7576;DHT22;3829;50.798;4.358;2023-07-30T14:59:40;22.60;99.90
7576;DHT22;3829;50.798;4.358;2023-07-30T15:02:06;22.20;99.90
7576;DHT22;3829;50.798;4.358;2023-07-30T15:04:32;22.20;99.90
7576;DHT22;3829;50.798;4.358;2023-07-30T15:06:58;22.00;99.90
7576;DHT22;3829;50.798;4.358;2023-07-30T15:09:23;22.00;99.90
7576;DHT22;3829;50.798;4.358;2023-07-30T15:11:49;22.10;99.90
7576;DHT22;3829;50.798;4.358;2023-07-30T15:14:14;22.00;99.90
7576;DHT22;3829;50.798;4.358;2023-07-30T15:16:40;22.00;99.90
7576;DHT22;3829;50.798;4.358;2023-07-30T15:19:05;22.00;99.90
7576;DHT22;3829;50.798;4.358;2023-07-30T15:21:31;21.90;99.90
7576;DHT22;3829;50.798;4.358;2023-07-30T15:23:57;21.90;99.90
7576;DHT22;3829;50.798;4.358;2023-07-30T15:26:24;21.90;99.90
7576;DHT22;3829;50.798;4.358;2023-07-30T15:28:50;21.50;99.90
7576;DHT22;3829;50.798;4.358;2023-07-30T15:31:15;21.10;99.90
7576;DHT22;3829;50.798;4.358;2023-07-30T15:33:41;21.00;99.90
7576;DHT22;3829;50.798;4.358;2023-07-30T15:36:06;20.90;99.90
7576;DHT22;3829;50.798;4.358;2023-07-30T15:38:32;20.90;99.90
7576;DHT22;3829;50.798;4.358;2023-07-30T15:40:58;20.70;99.90
7576;DHT22;3829;50.798;4.358;2023-07-30T15:43:24;20.50;99.90
7576;DHT22;3829;50.798;4.358;2023-07-30T15:45:51;20.10;99.90
7576;DHT22;3829;50.798;4.358;2023-07-30T15:48:18;19.60;99.90
7576;DHT22;3829;50.798;4.358;2023-07-30T15:50:44;19.10;99.90
7576;DHT22;3829;50.798;4.358;2023-07-30T15:53:09;18.90;99.90
7576;DHT22;3829;50.798;4.358;2023-07-30T15:55:35;18.70;99.90